createdAt,value
2022-09-27T00:01:10.441Z,13.08
2022-09-27T00:03:40.696Z,13.13
2022-09-27T00:06:13.303Z,13.17
2022-09-27T00:08:41.281Z,13.21
2022-09-27T00:11:13.764Z,13.20
2022-09-27T00:13:41.736Z,13.27
2022-09-27T00:16:10.534Z,13.32
2022-09-27T00:18:40.579Z,13.36
2022-09-27T00:21:10.660Z,13.37
2022-09-27T00:23:39.455Z,13.34
2022-09-27T00:26:09.015Z,13.33
2022-09-27T00:28:36.916Z,13.33
2022-09-27T00:31:05.135Z,13.35
2022-09-27T00:33:33.203Z,13.38
2022-09-27T00:36:07.304Z,13.32
2022-09-27T00:38:35.191Z,13.26
2022-09-27T00:41:03.233Z,13.26
2022-09-27T00:43:45.300Z,13.14
2022-09-27T00:46:16.385Z,13.27
2022-09-27T00:48:44.384Z,13.23
2022-09-27T00:51:13.765Z,13.22
2022-09-27T00:53:46.578Z,13.16
2022-09-27T00:56:21.322Z,13.13
2022-09-27T00:58:54.856Z,12.97
2022-09-27T01:01:22.998Z,12.82
2022-09-27T01:03:57.714Z,12.69
2022-09-27T01:06:27.091Z,12.49
2022-09-27T01:08:54.993Z,12.40
2022-09-27T01:11:35.192Z,12.28
2022-09-27T01:14:30.091Z,12.34
2022-09-27T01:17:05.698Z,12.41
2022-09-27T01:20:17.804Z,12.36
2022-09-27T01:23:00.987Z,12.36
2022-09-27T01:25:50.331Z,12.31
2022-09-27T01:28:24.213Z,12.30
2022-09-27T01:30:57.419Z,12.40
2022-09-27T01:33:39.857Z,12.35
2022-09-27T01:36:21.897Z,12.39
2022-09-27T01:39:02.519Z,12.47
2022-09-27T01:41:49.456Z,12.58
2022-09-27T01:44:38.233Z,12.46
2022-09-27T01:47:20.105Z,12.30
2022-09-27T01:50:01.410Z,12.28
2022-09-27T01:52:36.189Z,12.24
2022-09-27T01:55:08.537Z,12.29
2022-09-27T01:58:22.001Z,12.37
2022-09-27T02:00:55.744Z,12.48
2022-09-27T02:03:31.533Z,12.56
2022-09-27T02:06:29.233Z,12.62
2022-09-27T02:09:11.672Z,12.65
2022-09-27T02:12:00.241Z,12.75
2022-09-27T02:14:36.785Z,12.79
2022-09-27T02:17:13.900Z,12.78
2022-09-27T02:19:53.443Z,12.81
2022-09-27T02:22:34.946Z,12.73
2022-09-27T02:25:11.517Z,12.59
2022-09-27T02:27:49.817Z,12.58
2022-09-27T02:30:20.541Z,12.58
2022-09-27T02:32:54.600Z,12.63
2022-09-27T02:35:29.624Z,12.62
2022-09-27T02:37:58.526Z,12.63
2022-09-27T02:40:32.787Z,12.52
2022-09-27T02:43:02.824Z,12.54
2022-09-27T02:45:42.503Z,12.51
2022-09-27T02:48:23.948Z,12.38
2022-09-27T02:51:14.129Z,12.17
2022-09-27T02:53:56.040Z,12.11
2022-09-27T02:56:51.702Z,12.20
2022-09-27T02:59:49.397Z,12.30
2022-09-27T03:02:44.096Z,12.32
2022-09-27T03:05:34.800Z,12.29
2022-09-27T03:08:05.226Z,12.38
2022-09-27T03:10:34.195Z,12.25
2022-09-27T03:13:02.173Z,12.22
2022-09-27T03:15:30.124Z,12.02
2022-09-27T03:18:04.395Z,12.00
2022-09-27T03:20:53.822Z,12.02
2022-09-27T03:23:24.813Z,11.99
2022-09-27T03:25:53.392Z,12.00
2022-09-27T03:28:21.648Z,11.94
2022-09-27T03:30:50.052Z,11.94
2022-09-27T03:33:37.949Z,11.96
2022-09-27T03:36:12.526Z,11.94
2022-09-27T03:38:42.149Z,11.87
2022-09-27T03:41:13.551Z,11.76
2022-09-27T03:43:41.717Z,11.88
2022-09-27T03:46:09.723Z,11.91
2022-09-27T03:48:38.080Z,11.98
2022-09-27T03:51:06.136Z,12.08
2022-09-27T03:53:34.100Z,12.13
2022-09-27T03:56:03.529Z,12.05
2022-09-27T03:58:31.548Z,12.04
2022-09-27T04:00:59.613Z,12.08
2022-09-27T04:03:30.531Z,12.19
2022-09-27T04:06:23.915Z,12.30
2022-09-27T04:08:51.873Z,12.33
2022-09-27T04:11:23.154Z,12.40
2022-09-27T04:13:51.219Z,12.45
2022-09-27T04:16:21.368Z,12.48
2022-09-27T04:19:04.216Z,12.47
2022-09-27T04:21:37.756Z,12.45
2022-09-27T04:24:06.970Z,12.38
2022-09-27T04:26:37.472Z,12.29
2022-09-27T04:29:12.156Z,12.24
2022-09-27T04:31:44.453Z,12.13
2022-09-27T04:34:56.981Z,12.11
2022-09-27T04:37:26.734Z,12.14
2022-09-27T04:40:01.980Z,12.22
2022-09-27T04:42:33.068Z,12.33
2022-09-27T04:45:00.960Z,12.39
2022-09-27T04:47:28.857Z,12.31
2022-09-27T04:49:56.828Z,12.25
2022-09-27T04:52:24.735Z,12.06
2022-09-27T04:54:53.059Z,12.02
2022-09-27T04:57:21.364Z,12.03
2022-09-27T04:59:51.576Z,11.97
2022-09-27T05:02:19.805Z,11.93
2022-09-27T05:05:10.652Z,11.94
2022-09-27T05:07:41.909Z,11.96
2022-09-27T05:10:15.444Z,12.02
2022-09-27T05:12:43.349Z,12.01
2022-09-27T05:15:16.290Z,11.93
2022-09-27T05:18:10.806Z,11.87
2022-09-27T05:21:04.512Z,11.88
2022-09-27T05:23:38.583Z,11.86
2022-09-27T05:26:07.483Z,11.86
2022-09-27T05:28:36.104Z,11.85
2022-09-27T05:31:05.752Z,11.90
2022-09-27T05:33:34.307Z,12.02
2022-09-27T05:36:40.419Z,12.09
2022-09-27T05:39:09.267Z,12.16
2022-09-27T05:41:37.376Z,12.28
2022-09-27T05:44:05.945Z,12.41
2022-09-27T05:46:36.055Z,12.47
2022-09-27T05:49:05.144Z,12.50
2022-09-27T05:51:33.337Z,12.42
2022-09-27T05:54:01.224Z,12.40
2022-09-27T05:56:30.005Z,12.35
2022-09-27T05:59:14.980Z,12.32
2022-09-27T06:02:04.609Z,12.38
2022-09-27T06:04:51.142Z,12.61
2022-09-27T06:07:39.176Z,12.83
2022-09-27T06:10:10.913Z,13.00
2022-09-27T06:12:39.225Z,13.12
2022-09-27T06:15:17.834Z,13.23
2022-09-27T06:17:48.097Z,13.26
2022-09-27T06:20:19.031Z,13.24
2022-09-27T06:22:48.137Z,13.18
2022-09-27T06:25:16.520Z,13.17
2022-09-27T06:28:06.010Z,13.14
2022-09-27T06:30:40.631Z,13.18
2022-09-27T06:33:19.598Z,13.22
2022-09-27T06:35:52.284Z,13.39
2022-09-27T06:38:21.178Z,13.36
2022-09-27T06:40:57.982Z,13.33
2022-09-27T06:43:40.588Z,13.47
2022-09-27T06:46:40.654Z,13.73
2022-09-27T06:49:25.535Z,13.92
2022-09-27T06:51:54.754Z,14.06
2022-09-27T06:54:23.959Z,14.16
2022-09-27T06:56:51.948Z,14.20
2022-09-27T06:59:37.225Z,14.23
2022-09-27T07:02:25.199Z,14.35
2022-09-27T07:05:17.816Z,14.32
2022-09-27T07:08:00.469Z,14.15
2022-09-27T07:10:32.747Z,14.02
2022-09-27T07:13:05.413Z,13.95
2022-09-27T07:15:36.369Z,13.99
2022-09-27T07:18:08.985Z,14.12
2022-09-27T07:20:38.412Z,14.29
2022-09-27T07:23:08.326Z,14.42
2022-09-27T07:25:36.538Z,14.56
2022-09-27T07:28:06.347Z,14.55
2022-09-27T07:30:35.969Z,14.62
2022-09-27T07:33:07.051Z,14.59
2022-09-27T07:35:36.922Z,14.74
2022-09-27T07:38:08.204Z,14.68
2022-09-27T07:40:37.875Z,14.63
2022-09-27T07:43:05.926Z,14.68
2022-09-27T07:45:35.240Z,14.67
2022-09-27T07:48:13.838Z,14.82
2022-09-27T07:51:19.849Z,15.06
2022-09-27T07:53:55.403Z,15.24
2022-09-27T07:56:41.696Z,15.29
2022-09-27T07:59:12.545Z,15.25
2022-09-27T08:01:40.813Z,15.18
2022-09-27T08:04:08.785Z,15.19
2022-09-27T08:06:36.832Z,15.16
2022-09-27T08:09:09.712Z,15.14
2022-09-27T08:11:39.424Z,15.01
2022-09-27T08:14:08.507Z,15.04
2022-09-27T08:16:36.920Z,15.01
2022-09-27T08:19:36.757Z,15.01
2022-09-27T08:22:04.648Z,15.00
2022-09-27T08:25:14.045Z,14.85
2022-09-27T08:28:04.555Z,14.96
2022-09-27T08:30:38.349Z,14.93
2022-09-27T08:33:08.219Z,14.75
2022-09-27T08:35:36.941Z,14.56
2022-09-27T08:38:06.363Z,14.50
2022-09-27T08:40:50.303Z,14.39
2022-09-27T08:43:27.338Z,14.27
2022-09-27T08:46:06.261Z,14.24
2022-09-27T08:48:38.460Z,14.22
2022-09-27T08:51:11.876Z,14.34
2022-09-27T08:53:46.834Z,14.37
2022-09-27T08:56:21.231Z,14.36
2022-09-27T08:58:54.024Z,14.37
2022-09-27T09:01:29.132Z,14.37
2022-09-27T09:04:11.280Z,14.42
2022-09-27T09:06:44.456Z,14.44
2022-09-27T09:09:22.817Z,14.38
2022-09-27T09:12:47.876Z,14.25
2022-09-27T09:15:33.740Z,14.25
2022-09-27T09:18:23.832Z,14.29
2022-09-27T09:21:14.761Z,14.37
2022-09-27T09:24:00.456Z,14.39
2022-09-27T09:26:36.186Z,14.41
2022-09-27T09:29:28.634Z,14.43
2022-09-27T09:32:06.079Z,14.42
2022-09-27T09:34:39.368Z,14.40
2022-09-27T09:37:16.833Z,14.41
2022-09-27T09:39:49.985Z,14.42
2022-09-27T09:42:25.876Z,14.40
2022-09-27T09:45:00.805Z,14.51
2022-09-27T09:47:37.265Z,14.55
2022-09-27T09:50:18.284Z,14.56
2022-09-27T09:52:51.781Z,14.54
2022-09-27T09:55:22.731Z,14.58
2022-09-27T09:58:02.321Z,14.71
2022-09-27T10:00:40.227Z,14.80
2022-09-27T10:03:08.367Z,14.86
2022-09-27T10:05:36.789Z,14.90
2022-09-27T10:08:14.498Z,14.89
2022-09-27T10:10:42.600Z,14.83
2022-09-27T10:13:42.421Z,14.85
2022-09-27T10:16:16.933Z,14.90
2022-09-27T10:18:49.852Z,14.93
2022-09-27T10:21:22.812Z,14.87
2022-09-27T10:24:12.417Z,14.93
2022-09-27T10:27:02.512Z,15.03
2022-09-27T10:29:37.972Z,15.05
2022-09-27T10:32:27.183Z,15.05
2022-09-27T10:35:32.759Z,15.04
2022-09-27T10:38:22.523Z,15.06
2022-09-27T10:40:53.265Z,15.01
2022-09-27T10:43:29.814Z,14.95
2022-09-27T10:46:13.397Z,14.92
2022-09-27T10:48:44.695Z,14.90
2022-09-27T10:51:27.216Z,14.89
2022-09-27T10:54:00.221Z,14.87
2022-09-27T10:56:33.575Z,14.79
2022-09-27T10:59:04.120Z,14.72
2022-09-27T11:01:41.857Z,14.52
2022-09-27T11:04:28.707Z,14.44
2022-09-27T11:07:09.674Z,14.46
2022-09-27T11:09:49.174Z,14.47
2022-09-27T11:12:20.618Z,14.49
2022-09-27T11:15:00.109Z,14.48
2022-09-27T11:17:36.421Z,14.54
2022-09-27T11:20:17.945Z,14.64
2022-09-27T11:23:23.809Z,14.79
2022-09-27T11:26:07.757Z,14.95
2022-09-27T11:28:49.976Z,14.90
2022-09-27T11:31:44.840Z,14.87
2022-09-27T11:34:46.478Z,14.86
2022-09-27T11:37:27.335Z,14.72
2022-09-27T11:40:13.849Z,14.47
2022-09-27T11:43:08.793Z,14.14
2022-09-27T11:46:14.331Z,13.47
2022-09-27T11:48:57.354Z,13.13
2022-09-27T11:51:40.715Z,12.98
2022-09-27T11:54:30.682Z,12.89
2022-09-27T11:57:04.131Z,12.88
2022-09-27T11:59:49.289Z,12.79
2022-09-27T12:02:35.205Z,12.83
2022-09-27T12:05:34.949Z,12.82
2022-09-27T12:08:22.479Z,12.97
2022-09-27T12:10:55.838Z,13.08
2022-09-27T12:13:33.065Z,13.06
2022-09-27T12:16:03.024Z,13.05
2022-09-27T12:18:39.065Z,13.18
2022-09-27T12:21:18.611Z,13.18
2022-09-27T12:23:50.148Z,13.21
2022-09-27T12:26:37.458Z,13.20
2022-09-27T12:29:14.268Z,13.20
2022-09-27T12:31:47.307Z,13.21
2022-09-27T12:34:20.430Z,13.32
2022-09-27T12:36:58.338Z,13.45
2022-09-27T12:39:30.044Z,13.52
2022-09-27T12:42:18.168Z,13.76
2022-09-27T12:44:51.548Z,13.97
2022-09-27T12:47:34.460Z,14.15
2022-09-27T12:50:12.536Z,14.20
2022-09-27T12:52:46.269Z,14.22
2022-09-27T12:55:44.993Z,14.12
2022-09-27T12:58:34.000Z,14.07
2022-09-27T13:01:10.979Z,14.15
2022-09-27T13:03:56.516Z,14.28
2022-09-27T13:06:49.933Z,14.42
2022-09-27T13:09:33.818Z,14.64
2022-09-27T13:12:10.857Z,14.78
2022-09-27T13:14:51.737Z,14.92
2022-09-27T13:17:54.185Z,15.00
2022-09-27T13:20:48.184Z,15.06
2022-09-27T13:24:03.651Z,15.08
2022-09-27T13:26:52.102Z,15.22
2022-09-27T13:29:34.266Z,15.39
2022-09-27T13:32:17.478Z,15.37
2022-09-27T13:35:19.214Z,15.41
2022-09-27T13:37:58.982Z,15.43
2022-09-27T13:40:35.915Z,15.46
2022-09-27T13:43:44.839Z,15.50
2022-09-27T13:46:53.391Z,15.53
2022-09-27T13:49:30.235Z,15.46
2022-09-27T13:52:20.765Z,15.48
2022-09-27T13:54:57.020Z,15.51
2022-09-27T13:57:50.907Z,15.41
2022-09-27T14:00:24.710Z,15.23
2022-09-27T14:03:42.369Z,15.16
2022-09-27T14:06:22.492Z,15.19
2022-09-27T14:08:52.704Z,15.15
2022-09-27T14:11:25.752Z,15.28
2022-09-27T14:13:57.121Z,15.30
2022-09-27T14:16:32.705Z,15.33
2022-09-27T14:19:02.539Z,15.41
2022-09-27T14:21:41.561Z,15.46
2022-09-27T14:24:47.092Z,15.46
2022-09-27T14:27:24.975Z,15.38
2022-09-27T14:30:07.307Z,15.20
2022-09-27T14:32:47.820Z,15.27
2022-09-27T14:35:41.470Z,15.24
2022-09-27T14:38:36.163Z,15.22
2022-09-27T14:41:08.362Z,15.10
2022-09-27T14:43:37.904Z,15.17
2022-09-27T14:46:07.648Z,15.11
2022-09-27T14:48:38.794Z,15.06
2022-09-27T14:51:20.558Z,15.01
2022-09-27T14:53:53.499Z,14.97
2022-09-27T14:56:26.019Z,14.96
2022-09-27T14:59:02.384Z,14.92
2022-09-27T15:01:30.920Z,14.80
2022-09-27T15:04:05.818Z,14.73
2022-09-27T15:06:34.455Z,14.70
2022-09-27T15:09:05.372Z,14.64
2022-09-27T15:11:34.800Z,14.65
2022-09-27T15:14:05.848Z,14.63
2022-09-27T15:16:35.833Z,14.60
2022-09-27T15:19:15.527Z,14.55
2022-09-27T15:21:43.604Z,14.55
2022-09-27T15:24:40.524Z,14.50
2022-09-27T15:27:16.364Z,14.41
2022-09-27T15:29:50.046Z,14.43
2022-09-27T15:32:21.509Z,14.41
2022-09-27T15:34:49.460Z,14.41
2022-09-27T15:37:28.857Z,14.44
2022-09-27T15:40:29.869Z,14.43
2022-09-27T15:43:00.976Z,14.45
2022-09-27T15:45:30.339Z,14.45
2022-09-27T15:48:09.260Z,14.38
2022-09-27T15:50:38.729Z,14.38
2022-09-27T15:53:07.079Z,14.33
2022-09-27T15:55:42.581Z,14.29
2022-09-27T15:58:16.490Z,14.24
2022-09-27T16:00:54.256Z,14.19
2022-09-27T16:03:22.968Z,14.12
2022-09-27T16:05:50.832Z,14.04
2022-09-27T16:08:18.683Z,14.06
2022-09-27T16:10:51.814Z,14.01
2022-09-27T16:13:19.765Z,13.92
2022-09-27T16:15:49.146Z,13.94
2022-09-27T16:18:16.973Z,13.91
2022-09-27T16:20:44.910Z,13.90
2022-09-27T16:23:12.709Z,13.87
2022-09-27T16:25:40.730Z,13.86
2022-09-27T16:28:11.757Z,13.83
2022-09-27T16:30:39.620Z,13.81
2022-09-27T16:33:07.425Z,13.79
2022-09-27T16:35:35.260Z,13.77
2022-09-27T16:38:03.041Z,13.76
2022-09-27T16:40:32.014Z,13.74
2022-09-27T16:42:59.877Z,13.74
2022-09-27T16:45:34.091Z,13.75
2022-09-27T16:48:02.405Z,13.74
2022-09-27T16:50:47.642Z,13.75
2022-09-27T16:53:15.452Z,13.74
2022-09-27T16:55:43.196Z,13.72
2022-09-27T16:58:11.368Z,13.68
2022-09-27T17:00:42.170Z,13.68
2022-09-27T17:03:10.243Z,13.68
2022-09-27T17:05:38.079Z,13.65
2022-09-27T17:08:05.975Z,13.62
2022-09-27T17:10:35.752Z,13.62
2022-09-27T17:13:03.794Z,13.62
2022-09-27T17:15:31.583Z,13.61
2022-09-27T17:18:00.751Z,13.57
2022-09-27T17:20:28.536Z,13.49
2022-09-27T17:22:57.056Z,13.55
2022-09-27T17:25:24.846Z,13.55
2022-09-27T17:27:52.610Z,13.52
2022-09-27T17:30:21.016Z,13.53
2022-09-27T17:32:48.958Z,13.52
2022-09-27T17:35:18.100Z,13.52
2022-09-27T17:37:46.138Z,13.50
2022-09-27T17:40:15.926Z,13.46
2022-09-27T17:42:44.061Z,13.52
2022-09-27T17:45:12.042Z,13.51
2022-09-27T17:47:57.260Z,13.53
2022-09-27T17:50:28.379Z,13.49
2022-09-27T17:52:58.617Z,13.45
2022-09-27T17:55:27.019Z,13.43
2022-09-27T17:57:54.845Z,13.41
2022-09-27T18:00:22.765Z,13.38
2022-09-27T18:02:50.675Z,13.35
2022-09-27T18:05:21.193Z,13.35
2022-09-27T18:07:50.514Z,13.32
2022-09-27T18:10:18.679Z,13.29
2022-09-27T18:12:46.449Z,13.30
2022-09-27T18:15:16.906Z,13.30
2022-09-27T18:17:45.918Z,13.32
2022-09-27T18:20:13.749Z,13.28
2022-09-27T18:22:41.604Z,13.25
2022-09-27T18:25:11.987Z,13.22
2022-09-27T18:27:40.918Z,13.29
2022-09-27T18:30:10.167Z,13.28
2022-09-27T18:32:38.084Z,13.26
2022-09-27T18:35:06.965Z,13.24
2022-09-27T18:37:34.835Z,13.24
2022-09-27T18:40:02.941Z,13.26
2022-09-27T18:42:32.169Z,13.29
2022-09-27T18:44:59.979Z,13.30
2022-09-27T18:47:27.878Z,13.32
2022-09-27T18:49:55.645Z,13.34
2022-09-27T18:52:23.472Z,13.32
2022-09-27T18:54:51.236Z,13.31
2022-09-27T18:57:19.066Z,13.31
2022-09-27T18:59:49.222Z,13.31
2022-09-27T19:02:17.229Z,13.31
2022-09-27T19:04:45.038Z,13.30
2022-09-27T19:07:12.819Z,13.27
2022-09-27T19:09:40.736Z,13.23
2022-09-27T19:12:08.537Z,13.22
2022-09-27T19:14:36.399Z,13.20
2022-09-27T19:17:05.648Z,13.19
2022-09-27T19:19:33.451Z,13.18
2022-09-27T19:22:01.242Z,13.18
2022-09-27T19:24:29.076Z,13.17
2022-09-27T19:26:57.253Z,13.13
2022-09-27T19:29:25.064Z,13.10
2022-09-27T19:31:52.955Z,13.08
2022-09-27T19:34:22.181Z,13.05
2022-09-27T19:36:49.969Z,13.04
2022-09-27T19:39:18.003Z,12.96
2022-09-27T19:41:45.912Z,12.92
2022-09-27T19:44:13.889Z,12.86
2022-09-27T19:46:41.805Z,12.87
2022-09-27T19:49:09.798Z,12.72
2022-09-27T19:51:39.032Z,12.84
2022-09-27T19:54:06.876Z,12.83
2022-09-27T19:56:34.883Z,12.81
2022-09-27T19:59:06.855Z,12.83
2022-09-27T20:01:35.835Z,12.82
2022-09-27T20:04:04.120Z,12.80
2022-09-27T20:06:32.684Z,12.67
2022-09-27T20:09:03.530Z,12.77
2022-09-27T20:11:33.108Z,12.71
2022-09-27T20:14:00.878Z,12.73
2022-09-27T20:16:29.410Z,12.72
2022-09-27T20:18:58.959Z,12.68
2022-09-27T20:21:28.713Z,12.72
2022-09-27T20:23:57.745Z,12.58
2022-09-27T20:26:28.816Z,12.58
2022-09-27T20:28:58.802Z,12.61
2022-09-27T20:31:30.683Z,12.63
2022-09-27T20:33:58.535Z,12.63
2022-09-27T20:36:28.028Z,12.61
2022-09-27T20:39:01.993Z,12.58
2022-09-27T20:41:34.107Z,12.52
2022-09-27T20:44:04.367Z,12.51
2022-09-27T20:46:32.970Z,12.49
2022-09-27T20:49:03.512Z,12.42
2022-09-27T20:51:33.230Z,12.44
2022-09-27T20:54:01.825Z,12.42
2022-09-27T20:56:33.138Z,12.36
2022-09-27T20:59:03.170Z,12.25
2022-09-27T21:01:32.394Z,12.30
2022-09-27T21:04:01.938Z,12.27
2022-09-27T21:06:31.476Z,12.26
2022-09-27T21:09:00.788Z,12.26
2022-09-27T21:11:28.797Z,12.25
2022-09-27T21:13:57.948Z,12.25
2022-09-27T21:16:29.967Z,12.20
2022-09-27T21:18:58.609Z,12.17
2022-09-27T21:21:27.464Z,12.17
2022-09-27T21:23:57.584Z,12.19
2022-09-27T21:26:26.700Z,12.17
2022-09-27T21:28:56.290Z,12.16
2022-09-27T21:31:27.076Z,12.13
2022-09-27T21:33:58.521Z,12.16
2022-09-27T21:36:28.884Z,12.14
2022-09-27T21:38:57.238Z,12.10
2022-09-27T21:41:25.562Z,12.11
2022-09-27T21:43:53.876Z,12.09
2022-09-27T21:46:23.585Z,12.08
2022-09-27T21:48:55.707Z,12.06
2022-09-27T21:51:25.533Z,12.07
2022-09-27T21:53:54.972Z,11.96
2022-09-27T21:56:24.177Z,11.99
2022-09-27T21:58:52.229Z,11.90
2022-09-27T22:01:22.093Z,11.81
2022-09-27T22:03:53.980Z,11.79
2022-09-27T22:06:23.300Z,11.75
2022-09-27T22:08:53.091Z,11.69
2022-09-27T22:11:24.067Z,11.68
2022-09-27T22:13:51.966Z,11.68
2022-09-27T22:16:21.451Z,11.65
2022-09-27T22:18:51.048Z,11.55
2022-09-27T22:21:23.897Z,11.54
2022-09-27T22:23:54.736Z,11.53
2022-09-27T22:26:25.185Z,11.49
2022-09-27T22:28:53.284Z,11.46
2022-09-27T22:31:22.433Z,11.45
2022-09-27T22:33:51.484Z,11.30
2022-09-27T22:36:20.979Z,11.42
2022-09-27T22:38:49.324Z,11.37
2022-09-27T22:41:17.341Z,11.35
2022-09-27T22:43:45.291Z,11.32
2022-09-27T22:46:13.955Z,11.29
2022-09-27T22:48:42.482Z,11.29
2022-09-27T22:51:10.908Z,11.28
2022-09-27T22:53:40.178Z,11.27
2022-09-27T22:56:09.855Z,11.25
2022-09-27T22:58:38.677Z,11.27
2022-09-27T23:01:11.152Z,11.28
2022-09-27T23:03:39.489Z,11.08
2022-09-27T23:06:08.138Z,11.28
2022-09-27T23:08:36.903Z,11.27
2022-09-27T23:11:08.726Z,11.25
2022-09-27T23:13:38.883Z,11.23
2022-09-27T23:16:08.878Z,11.12
2022-09-27T23:18:37.333Z,11.19
2022-09-27T23:21:08.243Z,11.18
2022-09-27T23:23:37.213Z,11.03
2022-09-27T23:26:07.882Z,11.15
2022-09-27T23:28:36.099Z,11.14
2022-09-27T23:31:08.575Z,11.14
2022-09-27T23:33:36.927Z,11.16
2022-09-27T23:36:05.009Z,11.13
2022-09-27T23:38:33.352Z,11.12
2022-09-27T23:41:01.487Z,11.06
2022-09-27T23:43:30.715Z,10.99
2022-09-27T23:45:58.487Z,11.07
2022-09-27T23:48:26.932Z,11.09
2022-09-27T23:50:54.971Z,11.03
2022-09-27T23:53:22.896Z,11.03
2022-09-27T23:56:02.193Z,11.00
2022-09-27T23:58:33.414Z,10.98
